createdAt,value
2023-02-28T00:07:53.194Z,-1.30
2023-02-28T00:17:57.027Z,-1.30
2023-02-28T00:28:01.837Z,-1.40
2023-02-28T00:38:05.456Z,-1.50
2023-02-28T00:48:10.260Z,-1.60
2023-02-28T00:58:16.174Z,-1.70
2023-02-28T01:08:22.005Z,-1.90
2023-02-28T01:18:25.588Z,-2.20
2023-02-28T01:28:30.860Z,-2.40
2023-02-28T01:38:34.822Z,-2.50
2023-02-28T01:48:43.138Z,-2.60
2023-02-28T01:58:46.751Z,-2.90
2023-02-28T02:08:51.821Z,-3.20
2023-02-28T02:19:00.147Z,-3.50
2023-02-28T02:29:56.777Z,-3.60
2023-02-28T02:40:13.598Z,-3.50
2023-02-28T02:50:23.441Z,-3.60
2023-02-28T03:00:33.597Z,-3.70
2023-02-28T03:10:41.407Z,-4.10
2023-02-28T03:21:01.785Z,-4.30
2023-02-28T03:31:16.554Z,-4.40
2023-02-28T03:41:25.807Z,-4.60
2023-02-28T03:51:31.856Z,-4.70
2023-02-28T04:01:42.393Z,-4.90
2023-02-28T04:11:48.177Z,-5.20
2023-02-28T04:21:54.794Z,-5.30
2023-02-28T04:32:00.098Z,-5.60
2023-02-28T04:42:05.238Z,-5.90
2023-02-28T04:52:08.990Z,-6.00
2023-02-28T05:02:14.210Z,-6.10
2023-02-28T05:12:17.633Z,-6.30
2023-02-28T05:22:22.530Z,-6.40
2023-02-28T05:32:26.096Z,-6.40
2023-02-28T05:42:30.997Z,-6.40
2023-02-28T05:52:34.828Z,-6.30
2023-02-28T06:02:41.928Z,-6.00
2023-02-28T06:12:45.398Z,-5.80
2023-02-28T06:22:51.787Z,-5.50
2023-02-28T06:32:56.025Z,-5.10
2023-02-28T06:43:00.837Z,-4.70
2023-02-28T06:53:04.319Z,-4.20
2023-02-28T07:03:09.285Z,-3.60
2023-02-28T07:13:12.956Z,-2.60
2023-02-28T07:23:17.834Z,-2.10
2023-02-28T07:33:21.445Z,-1.60
2023-02-28T07:43:26.428Z,-0.70
2023-02-28T07:53:30.460Z,0.80
2023-02-28T08:03:35.566Z,1.70
2023-02-28T08:13:39.020Z,2.10
2023-02-28T08:23:43.926Z,3.50
2023-02-28T08:33:49.630Z,5.30
2023-02-28T08:43:54.812Z,6.70
2023-02-28T08:54:02.432Z,9.60
2023-02-28T09:04:09.428Z,17.10
2023-02-28T09:14:12.943Z,17.60
2023-02-28T09:24:17.915Z,16.50
2023-02-28T09:34:21.767Z,17.00
2023-02-28T09:44:32.725Z,19.80
2023-02-28T09:54:36.133Z,24.40
2023-02-28T10:04:53.654Z,24.30
2023-02-28T10:15:00.690Z,27.70
2023-02-28T10:25:21.267Z,29.20
2023-02-28T10:35:26.594Z,30.00
2023-02-28T10:45:35.013Z,30.90
2023-02-28T10:55:40.381Z,31.00
2023-02-28T11:05:49.859Z,32.40
2023-02-28T11:15:56.052Z,33.40
2023-02-28T11:26:05.697Z,32.30
2023-02-28T11:36:15.174Z,33.30
2023-02-28T11:46:34.596Z,34.00
2023-02-28T11:56:42.324Z,35.50
2023-02-28T12:06:53.000Z,35.00
2023-02-28T12:17:13.431Z,34.00
2023-02-28T12:27:22.761Z,34.60
2023-02-28T12:37:33.998Z,34.80
2023-02-28T12:47:40.677Z,34.60
2023-02-28T12:57:52.098Z,34.10
2023-02-28T13:08:40.023Z,33.10
2023-02-28T13:18:47.711Z,32.10
2023-02-28T13:39:51.972Z,31.70
2023-02-28T13:49:55.861Z,30.50
2023-02-28T14:00:20.678Z,30.30
2023-02-28T14:10:30.370Z,29.30
2023-02-28T14:20:36.430Z,28.10
2023-02-28T14:30:55.563Z,26.00
2023-02-28T14:41:05.718Z,23.90
2023-02-28T14:51:09.252Z,21.60
2023-02-28T15:01:14.193Z,14.60
2023-02-28T15:11:22.442Z,10.30
2023-02-28T15:21:31.143Z,7.70
2023-02-28T15:31:55.377Z,6.00
2023-02-28T15:42:14.893Z,4.80
2023-02-28T15:52:22.505Z,3.80
2023-02-28T16:02:35.150Z,2.90
2023-02-28T16:12:41.060Z,2.10
2023-02-28T16:22:46.812Z,1.50
2023-02-28T16:32:51.186Z,0.90
2023-02-28T16:43:00.935Z,0.30
2023-02-28T16:53:04.371Z,-0.20
2023-02-28T17:03:31.983Z,-0.60
2023-02-28T17:13:36.700Z,-0.90
2023-02-28T17:23:41.682Z,-1.40
2023-02-28T17:33:45.412Z,-1.80
2023-02-28T17:43:51.322Z,-2.20
2023-02-28T17:53:55.204Z,-2.50
2023-02-28T18:04:00.188Z,-2.70
2023-02-28T18:14:03.740Z,-3.00
2023-02-28T18:24:09.023Z,-3.20
2023-02-28T18:34:15.618Z,-3.40
2023-02-28T18:44:21.456Z,-3.50
2023-02-28T18:54:25.089Z,-3.60
2023-02-28T19:04:29.945Z,-3.70
2023-02-28T19:14:33.614Z,-3.90
2023-02-28T19:24:41.399Z,-4.00
2023-02-28T19:34:45.143Z,-4.10
2023-02-28T19:44:50.391Z,-4.10
2023-02-28T19:54:53.944Z,-4.20
2023-02-28T20:05:01.308Z,-4.50
2023-02-28T20:15:05.705Z,-4.50
2023-02-28T20:25:12.203Z,-4.90
2023-02-28T20:35:16.101Z,-5.10
2023-02-28T20:45:20.965Z,-5.30
2023-02-28T20:55:24.589Z,-5.40
2023-02-28T21:05:29.531Z,-5.50
2023-02-28T21:15:33.245Z,-5.50
2023-02-28T21:25:38.239Z,-5.70
2023-02-28T21:35:41.732Z,-5.80
2023-02-28T21:45:46.571Z,-5.90
2023-02-28T21:55:50.094Z,-5.80
2023-02-28T22:05:54.914Z,-6.00
2023-02-28T22:16:03.169Z,-6.10
2023-02-28T22:26:11.481Z,-6.00
2023-02-28T22:36:17.569Z,-6.10
2023-02-28T22:46:24.388Z,-6.10
2023-02-28T22:56:30.787Z,-6.20
2023-02-28T23:06:38.193Z,-6.10
2023-02-28T23:16:44.145Z,-6.10
2023-02-28T23:26:53.022Z,-6.20
2023-02-28T23:36:57.956Z,-6.40
2023-02-28T23:47:02.924Z,-6.50
2023-02-28T23:57:07.646Z,-6.50
